createdAt,value
2017-08-16T00:01:58.142Z,90.70
2017-08-16T00:04:25.828Z,90.80
2017-08-16T00:06:53.437Z,90.90
2017-08-16T00:09:21.090Z,91.10
2017-08-16T00:11:48.685Z,91.10
2017-08-16T00:14:16.340Z,91.00
2017-08-16T00:16:43.959Z,91.30
2017-08-16T00:19:11.715Z,91.20
2017-08-16T00:21:39.251Z,91.20
2017-08-16T00:24:06.853Z,91.20
2017-08-16T00:26:35.107Z,91.20
2017-08-16T00:29:02.776Z,91.20
2017-08-16T00:31:30.401Z,91.00
2017-08-16T00:33:58.047Z,91.10
2017-08-16T00:36:25.780Z,91.10
2017-08-16T00:38:53.382Z,91.20
2017-08-16T00:41:21.046Z,91.10
2017-08-16T00:43:48.666Z,91.00
2017-08-16T00:46:16.228Z,91.10
2017-08-16T00:48:43.884Z,90.80
2017-08-16T00:51:11.530Z,91.10
2017-08-16T00:53:39.059Z,91.00
2017-08-16T00:56:06.706Z,91.10
2017-08-16T00:58:35.305Z,91.00
2017-08-16T01:01:02.915Z,91.10
2017-08-16T01:03:30.447Z,91.00
2017-08-16T01:05:58.111Z,91.00
2017-08-16T01:08:25.731Z,91.00
2017-08-16T01:10:53.319Z,91.00
2017-08-16T01:13:20.923Z,91.00
2017-08-16T01:15:48.493Z,91.00
2017-08-16T01:18:16.037Z,91.30
2017-08-16T01:20:43.722Z,91.20
2017-08-16T01:23:11.255Z,91.00
2017-08-16T01:25:38.844Z,91.00
2017-08-16T01:28:06.420Z,91.00
2017-08-16T01:30:34.017Z,91.20
2017-08-16T01:33:01.678Z,91.20
2017-08-16T01:35:29.321Z,91.20
2017-08-16T01:37:56.968Z,91.30
2017-08-16T01:40:24.629Z,91.20
2017-08-16T01:42:52.211Z,91.00
2017-08-16T01:45:19.863Z,91.10
2017-08-16T01:47:47.399Z,91.20
2017-08-16T01:50:14.963Z,91.20
2017-08-16T01:52:42.906Z,91.20
2017-08-16T01:55:10.476Z,91.10
2017-08-16T01:57:38.016Z,91.10
2017-08-16T02:00:05.602Z,91.00
2017-08-16T02:02:33.206Z,90.70
2017-08-16T02:05:00.867Z,90.80
2017-08-16T02:07:28.470Z,90.70
2017-08-16T02:09:56.122Z,90.50
2017-08-16T02:12:23.723Z,90.60
2017-08-16T02:14:51.337Z,90.70
2017-08-16T02:17:18.885Z,90.70
2017-08-16T02:19:46.492Z,90.60
2017-08-16T02:22:14.051Z,90.60
2017-08-16T02:24:42.175Z,90.90
2017-08-16T02:27:09.858Z,90.90
2017-08-16T02:29:37.450Z,90.90
2017-08-16T02:32:05.008Z,90.80
2017-08-16T02:34:32.582Z,91.10
2017-08-16T02:37:00.144Z,91.10
2017-08-16T02:39:27.729Z,91.00
2017-08-16T02:41:55.325Z,91.00
2017-08-16T02:44:22.903Z,91.00
2017-08-16T02:46:50.484Z,90.80
2017-08-16T02:49:18.018Z,90.90
2017-08-16T02:51:45.587Z,91.10
2017-08-16T02:54:13.115Z,91.00
2017-08-16T02:56:41.406Z,91.00
2017-08-16T02:59:09.060Z,91.30
2017-08-16T03:01:36.627Z,91.20
2017-08-16T03:04:04.815Z,91.10
2017-08-16T03:06:32.484Z,90.90
2017-08-16T03:09:00.035Z,91.10
2017-08-16T03:11:27.712Z,91.30
2017-08-16T03:13:55.373Z,91.30
2017-08-16T03:16:23.080Z,91.40
2017-08-16T03:18:50.669Z,91.20
2017-08-16T03:21:18.267Z,91.10
2017-08-16T03:23:45.831Z,91.40
2017-08-16T03:26:13.399Z,91.10
2017-08-16T03:28:43.399Z,91.10
2017-08-16T03:31:11.059Z,91.00
2017-08-16T03:33:38.679Z,91.00
2017-08-16T03:36:06.358Z,91.10
2017-08-16T03:38:34.011Z,91.10
2017-08-16T03:41:01.742Z,91.00
2017-08-16T03:43:29.355Z,91.10
2017-08-16T03:45:57.027Z,91.00
2017-08-16T03:48:25.009Z,90.90
2017-08-16T03:50:52.668Z,91.00
2017-08-16T03:53:20.298Z,90.90
2017-08-16T03:55:47.985Z,91.10
2017-08-16T03:58:15.560Z,91.10
2017-08-16T04:00:43.228Z,91.00
2017-08-16T04:03:10.856Z,91.00
2017-08-16T04:05:38.469Z,90.90
2017-08-16T04:08:06.099Z,90.90
2017-08-16T04:10:33.819Z,90.90
2017-08-16T04:13:01.415Z,91.00
2017-08-16T04:15:29.084Z,91.00
2017-08-16T04:17:56.764Z,91.10
2017-08-16T04:20:24.416Z,91.20
2017-08-16T04:22:52.139Z,91.10
2017-08-16T04:25:19.762Z,90.90
2017-08-16T04:27:48.333Z,91.00
2017-08-16T04:30:15.981Z,90.90
2017-08-16T04:32:43.660Z,91.00
2017-08-16T04:35:11.316Z,91.00
2017-08-16T04:37:38.954Z,90.90
2017-08-16T04:40:06.586Z,90.90
2017-08-16T04:42:34.239Z,91.00
2017-08-16T04:45:02.102Z,91.00
2017-08-16T04:47:29.708Z,91.10
2017-08-16T04:49:57.367Z,90.90
2017-08-16T04:52:24.970Z,91.00
2017-08-16T04:54:52.819Z,91.10
2017-08-16T04:57:20.528Z,90.80
2017-08-16T04:59:48.360Z,90.80
2017-08-16T05:02:16.018Z,90.80
2017-08-16T05:04:43.715Z,90.80
2017-08-16T05:07:11.352Z,90.90
2017-08-16T05:09:39.050Z,91.00
2017-08-16T05:12:06.708Z,91.00
2017-08-16T05:14:34.379Z,91.10
2017-08-16T05:17:02.109Z,91.10
2017-08-16T05:19:29.880Z,91.10
2017-08-16T05:21:57.446Z,91.10
2017-08-16T05:24:26.209Z,90.90
2017-08-16T05:26:57.981Z,90.70
2017-08-16T05:29:25.750Z,90.80
2017-08-16T05:31:53.422Z,90.80
2017-08-16T05:34:21.095Z,90.80
2017-08-16T05:36:48.712Z,90.60
2017-08-16T05:39:16.397Z,90.70
2017-08-16T05:41:44.002Z,90.60
2017-08-16T05:44:11.685Z,90.60
2017-08-16T05:46:39.296Z,90.60
2017-08-16T05:49:06.955Z,90.50
2017-08-16T05:51:34.500Z,90.40
2017-08-16T05:54:02.160Z,90.30
2017-08-16T05:56:29.753Z,90.20
2017-08-16T05:58:58.085Z,90.20
2017-08-16T06:01:25.706Z,90.20
2017-08-16T06:03:53.335Z,89.90
2017-08-16T06:06:20.952Z,89.50
2017-08-16T06:08:48.560Z,89.40
2017-08-16T06:11:16.183Z,89.90
2017-08-16T06:13:43.823Z,89.60
2017-08-16T06:16:11.364Z,89.60
2017-08-16T06:18:38.992Z,89.30
2017-08-16T06:21:06.613Z,88.80
2017-08-16T06:23:34.273Z,88.60
2017-08-16T06:26:01.889Z,88.80
2017-08-16T06:28:29.473Z,88.70
2017-08-16T06:30:57.090Z,88.30
2017-08-16T06:33:24.679Z,87.80
2017-08-16T06:35:52.301Z,87.30
2017-08-16T06:38:19.880Z,87.70
2017-08-16T06:40:47.540Z,87.40
2017-08-16T06:43:15.164Z,86.50
2017-08-16T06:45:42.818Z,86.30
2017-08-16T06:48:10.379Z,86.30
2017-08-16T06:50:37.985Z,85.90
2017-08-16T06:53:05.900Z,85.40
2017-08-16T06:55:33.566Z,85.10
2017-08-16T06:58:01.195Z,85.70
2017-08-16T07:00:28.799Z,84.50
2017-08-16T07:02:56.415Z,84.80
2017-08-16T07:05:24.048Z,83.30
2017-08-16T07:07:51.669Z,82.80
2017-08-16T07:10:19.277Z,84.20
2017-08-16T07:12:46.878Z,85.00
2017-08-16T07:15:14.531Z,85.20
2017-08-16T07:17:42.133Z,84.80
2017-08-16T07:20:09.806Z,84.30
2017-08-16T07:22:37.400Z,83.70
2017-08-16T07:25:06.193Z,82.80
2017-08-16T07:27:33.831Z,82.40
2017-08-16T07:30:01.478Z,81.50
2017-08-16T07:32:29.086Z,81.90
2017-08-16T07:34:56.792Z,81.80
2017-08-16T07:37:24.412Z,81.60
2017-08-16T07:39:52.097Z,81.90
2017-08-16T07:42:19.662Z,80.20
2017-08-16T07:44:47.275Z,80.60
2017-08-16T07:47:14.811Z,79.70
2017-08-16T07:49:42.428Z,77.10
2017-08-16T07:52:10.079Z,74.90
2017-08-16T07:54:37.661Z,74.80
2017-08-16T07:57:07.067Z,74.50
2017-08-16T07:59:34.681Z,74.80
2017-08-16T08:02:02.364Z,73.80
2017-08-16T08:04:29.984Z,73.20
2017-08-16T08:06:57.649Z,72.50
2017-08-16T08:09:25.276Z,71.90
2017-08-16T08:11:52.940Z,71.90
2017-08-16T08:14:20.557Z,71.20
2017-08-16T08:16:48.206Z,72.20
2017-08-16T08:19:15.820Z,70.10
2017-08-16T08:21:43.470Z,71.10
2017-08-16T08:24:11.086Z,71.20
2017-08-16T08:26:38.738Z,68.20
2017-08-16T08:29:06.479Z,70.90
2017-08-16T08:31:34.142Z,72.10
2017-08-16T08:34:01.675Z,72.90
2017-08-16T08:36:29.338Z,71.50
2017-08-16T08:38:56.988Z,71.80
2017-08-16T08:41:24.620Z,71.10
2017-08-16T08:43:52.230Z,70.90
2017-08-16T08:46:19.883Z,71.70
2017-08-16T08:48:47.440Z,70.30
2017-08-16T08:51:15.600Z,71.00
2017-08-16T08:53:43.242Z,70.30
2017-08-16T08:56:10.880Z,70.00
2017-08-16T08:58:38.488Z,69.20
2017-08-16T09:01:06.150Z,68.30
2017-08-16T09:03:33.699Z,68.60
2017-08-16T09:06:01.344Z,69.50
2017-08-16T09:08:28.973Z,69.80
2017-08-16T09:10:56.602Z,69.60
2017-08-16T09:13:24.208Z,69.40
2017-08-16T09:15:51.904Z,69.80
2017-08-16T09:18:19.527Z,70.30
2017-08-16T09:20:47.382Z,71.60
2017-08-16T09:23:15.658Z,69.90
2017-08-16T09:25:43.348Z,69.80
2017-08-16T09:28:10.896Z,68.80
2017-08-16T09:30:38.551Z,71.00
2017-08-16T09:33:06.097Z,68.60
2017-08-16T09:35:33.717Z,68.00
2017-08-16T09:38:01.358Z,66.90
2017-08-16T09:40:28.951Z,67.50
2017-08-16T09:42:56.617Z,66.90
2017-08-16T09:45:24.241Z,65.10
2017-08-16T09:47:51.904Z,67.30
2017-08-16T09:50:19.509Z,65.80
2017-08-16T09:52:47.188Z,65.90
2017-08-16T09:55:15.283Z,65.80
2017-08-16T09:57:42.936Z,65.60
2017-08-16T10:00:10.538Z,64.70
2017-08-16T10:02:38.104Z,63.00
2017-08-16T10:05:05.721Z,63.00
2017-08-16T10:07:33.356Z,61.30
2017-08-16T10:10:00.966Z,62.40
2017-08-16T10:12:28.576Z,62.20
2017-08-16T10:14:56.211Z,62.40
2017-08-16T10:17:23.861Z,63.10
2017-08-16T10:19:51.398Z,62.30
2017-08-16T10:22:18.988Z,62.70
2017-08-16T10:24:46.564Z,63.00
2017-08-16T10:27:14.238Z,63.10
2017-08-16T10:29:41.865Z,62.20
2017-08-16T10:32:09.436Z,61.90
2017-08-16T10:34:37.052Z,61.50
2017-08-16T10:37:04.732Z,61.40
2017-08-16T10:39:32.350Z,61.90
2017-08-16T10:42:00.030Z,61.70
2017-08-16T10:44:27.665Z,61.30
2017-08-16T10:46:55.423Z,59.90
2017-08-16T10:49:23.409Z,59.50
2017-08-16T10:51:51.067Z,60.80
2017-08-16T10:54:18.653Z,60.60
2017-08-16T10:56:46.351Z,59.60
2017-08-16T10:59:13.882Z,58.70
2017-08-16T11:01:41.423Z,58.80
2017-08-16T11:04:09.099Z,58.10
2017-08-16T11:06:36.691Z,57.00
2017-08-16T11:09:04.371Z,57.50
2017-08-16T11:11:31.967Z,58.10
2017-08-16T11:13:59.611Z,57.00
2017-08-16T11:16:27.208Z,55.90
2017-08-16T11:18:54.861Z,56.10
2017-08-16T11:21:23.163Z,56.90
2017-08-16T11:23:50.847Z,56.30
2017-08-16T11:26:18.433Z,55.90
2017-08-16T11:28:46.044Z,55.40
2017-08-16T11:31:13.634Z,54.80
2017-08-16T11:33:41.264Z,53.90
2017-08-16T11:36:08.956Z,54.60
2017-08-16T11:38:36.536Z,52.90
2017-08-16T11:41:04.106Z,52.00
2017-08-16T11:43:31.790Z,51.70
2017-08-16T11:45:59.420Z,53.20
2017-08-16T11:48:27.052Z,52.10
2017-08-16T11:50:54.644Z,53.30
2017-08-16T11:53:26.439Z,49.40
2017-08-16T11:55:54.042Z,50.70
2017-08-16T11:58:21.709Z,51.50
2017-08-16T12:00:49.322Z,49.80
2017-08-16T12:03:16.969Z,50.50
2017-08-16T12:05:44.579Z,51.40
2017-08-16T12:08:12.148Z,51.70
2017-08-16T12:10:39.921Z,52.00
2017-08-16T12:13:07.586Z,50.30
2017-08-16T12:15:35.192Z,50.60
2017-08-16T12:18:02.862Z,48.10
2017-08-16T12:20:30.472Z,48.20
2017-08-16T12:22:58.128Z,47.50
2017-08-16T12:25:27.017Z,48.60
2017-08-16T12:27:54.690Z,48.60
2017-08-16T12:30:22.279Z,48.00
2017-08-16T12:32:49.946Z,47.90
2017-08-16T12:35:17.565Z,49.10
2017-08-16T12:37:45.154Z,49.10
2017-08-16T12:40:12.751Z,49.00
2017-08-16T12:42:40.315Z,49.80
2017-08-16T12:45:07.931Z,48.80
2017-08-16T12:47:35.539Z,50.30
2017-08-16T12:50:03.144Z,48.50
2017-08-16T12:52:30.819Z,47.60
2017-08-16T12:54:58.478Z,47.90
2017-08-16T12:57:27.128Z,48.40
2017-08-16T12:59:54.823Z,47.20
2017-08-16T13:02:22.517Z,46.90
2017-08-16T13:04:50.123Z,48.90
2017-08-16T13:07:17.721Z,47.40
2017-08-16T13:09:45.387Z,47.40
2017-08-16T13:12:12.999Z,48.50
2017-08-16T13:14:40.820Z,48.60
2017-08-16T13:17:08.455Z,47.10
2017-08-16T13:19:36.101Z,48.10
2017-08-16T13:22:03.717Z,45.70
2017-08-16T13:24:31.430Z,45.30
2017-08-16T13:26:58.986Z,45.30
2017-08-16T13:29:28.506Z,45.60
2017-08-16T13:31:56.153Z,46.60
2017-08-16T13:34:23.892Z,45.60
2017-08-16T13:36:51.506Z,43.90
2017-08-16T13:39:19.218Z,43.40
2017-08-16T13:41:46.842Z,44.70
2017-08-16T13:44:14.471Z,45.20
2017-08-16T13:46:42.069Z,44.20
2017-08-16T13:49:09.701Z,44.90
2017-08-16T13:51:37.360Z,45.70
2017-08-16T13:54:04.999Z,46.20
2017-08-16T13:56:33.456Z,46.30
2017-08-16T13:59:01.007Z,45.60
2017-08-16T14:01:28.695Z,44.70
2017-08-16T14:03:56.338Z,45.70
2017-08-16T14:06:23.993Z,47.10
2017-08-16T14:08:51.603Z,48.70
2017-08-16T14:11:19.264Z,49.90
2017-08-16T14:13:46.889Z,44.70
2017-08-16T14:16:14.468Z,47.80
2017-08-16T14:18:42.065Z,47.30
2017-08-16T14:21:09.667Z,45.20
2017-08-16T14:23:37.514Z,42.30
2017-08-16T14:26:05.131Z,41.90
2017-08-16T14:28:32.777Z,42.10
2017-08-16T14:31:00.454Z,43.10
2017-08-16T14:33:28.060Z,41.40
2017-08-16T14:35:55.717Z,41.90
2017-08-16T14:38:23.401Z,43.20
2017-08-16T14:40:51.010Z,43.90
2017-08-16T14:43:18.677Z,40.30
2017-08-16T14:45:46.291Z,46.20
2017-08-16T14:48:13.957Z,45.30
2017-08-16T14:50:41.593Z,47.90
2017-08-16T14:53:09.265Z,47.80
2017-08-16T14:55:37.351Z,47.10
2017-08-16T14:58:05.023Z,48.30
2017-08-16T15:00:32.651Z,43.40
2017-08-16T15:03:00.336Z,42.70
2017-08-16T15:05:28.026Z,41.10
2017-08-16T15:07:55.655Z,44.00
2017-08-16T15:10:23.326Z,40.00
2017-08-16T15:12:50.980Z,41.70
2017-08-16T15:15:18.670Z,43.50
2017-08-16T15:17:46.236Z,44.10
2017-08-16T15:20:13.895Z,44.60
2017-08-16T15:22:41.485Z,45.20
2017-08-16T15:25:09.145Z,45.00
2017-08-16T15:27:37.369Z,45.70
2017-08-16T15:30:05.032Z,45.50
2017-08-16T15:32:32.609Z,45.70
2017-08-16T15:35:00.270Z,46.20
2017-08-16T15:37:28.199Z,48.00
2017-08-16T15:39:55.913Z,47.40
2017-08-16T15:42:23.448Z,49.50
2017-08-16T15:44:51.056Z,50.30
2017-08-16T15:47:18.584Z,49.90
2017-08-16T15:49:46.143Z,50.40
2017-08-16T15:52:13.673Z,51.10
2017-08-16T15:54:41.263Z,51.10
2017-08-16T15:57:08.884Z,52.20
2017-08-16T15:59:36.548Z,52.30
2017-08-16T16:02:04.177Z,52.40
2017-08-16T16:04:31.837Z,52.60
2017-08-16T16:06:59.664Z,51.90
2017-08-16T16:09:27.305Z,52.40
2017-08-16T16:11:54.984Z,53.70
2017-08-16T16:14:22.609Z,55.10
2017-08-16T16:16:50.287Z,54.80
2017-08-16T16:19:17.864Z,54.30
2017-08-16T16:21:45.481Z,54.40
2017-08-16T16:24:13.143Z,54.30
2017-08-16T16:26:40.752Z,54.60
2017-08-16T16:29:08.400Z,54.60
2017-08-16T16:31:36.049Z,55.40
2017-08-16T16:34:03.716Z,54.50
2017-08-16T16:36:31.273Z,54.80
2017-08-16T16:38:58.892Z,55.50
2017-08-16T16:41:26.602Z,56.30
2017-08-16T16:43:54.225Z,55.80
2017-08-16T16:46:21.872Z,55.80
2017-08-16T16:48:49.481Z,56.20
2017-08-16T16:51:17.137Z,55.50
2017-08-16T16:53:44.774Z,55.80
2017-08-16T16:56:12.426Z,57.90
2017-08-16T16:58:40.033Z,59.10
2017-08-16T17:01:07.645Z,59.20
2017-08-16T17:03:35.256Z,57.80
2017-08-16T17:06:02.893Z,58.50
2017-08-16T17:08:30.560Z,58.50
2017-08-16T17:10:58.208Z,59.10
2017-08-16T17:13:25.874Z,60.30
2017-08-16T17:15:53.489Z,61.10
2017-08-16T17:18:21.149Z,62.40
2017-08-16T17:20:48.745Z,63.40
2017-08-16T17:23:16.361Z,62.80
2017-08-16T17:25:44.022Z,63.80
2017-08-16T17:28:11.646Z,64.00
2017-08-16T17:30:39.290Z,64.80
2017-08-16T17:33:06.905Z,66.00
2017-08-16T17:35:34.554Z,65.90
2017-08-16T17:38:02.212Z,65.90
2017-08-16T17:40:29.921Z,66.00
2017-08-16T17:42:57.653Z,66.50
2017-08-16T17:45:25.368Z,66.40
2017-08-16T17:47:53.000Z,66.40
2017-08-16T17:50:20.606Z,67.50
2017-08-16T17:52:48.250Z,68.10
2017-08-16T17:55:15.865Z,67.60
2017-08-16T17:57:43.502Z,67.10
2017-08-16T18:00:11.091Z,68.40
2017-08-16T18:02:38.792Z,69.50
2017-08-16T18:05:06.419Z,69.90
2017-08-16T18:07:33.963Z,70.90
2017-08-16T18:10:01.610Z,71.00
2017-08-16T18:12:29.253Z,71.90
2017-08-16T18:14:56.941Z,70.70
2017-08-16T18:17:24.565Z,70.90
2017-08-16T18:19:52.171Z,72.00
2017-08-16T18:22:19.801Z,72.80
2017-08-16T18:24:47.407Z,73.10
2017-08-16T18:27:15.041Z,73.70
2017-08-16T18:29:42.669Z,73.70
2017-08-16T18:32:10.301Z,75.10
2017-08-16T18:34:37.869Z,74.60
2017-08-16T18:37:05.500Z,74.80
2017-08-16T18:39:33.103Z,75.40
2017-08-16T18:42:00.676Z,75.20
2017-08-16T18:44:28.309Z,75.40
2017-08-16T18:46:55.901Z,76.00
2017-08-16T18:49:23.545Z,76.80
2017-08-16T18:51:51.141Z,78.10
2017-08-16T18:54:18.779Z,77.30
2017-08-16T18:56:46.385Z,77.70
2017-08-16T18:59:14.038Z,77.70
2017-08-16T19:01:41.656Z,77.80
2017-08-16T19:04:09.262Z,78.00
2017-08-16T19:06:36.882Z,78.20
2017-08-16T19:09:04.505Z,78.60
2017-08-16T19:11:32.158Z,79.00
2017-08-16T19:13:59.863Z,79.80
2017-08-16T19:16:27.570Z,79.50
2017-08-16T19:18:55.169Z,80.00
2017-08-16T19:21:22.808Z,79.90
2017-08-16T19:23:50.380Z,80.30
2017-08-16T19:26:17.980Z,80.20
2017-08-16T19:28:45.578Z,80.40
2017-08-16T19:31:13.185Z,80.30
2017-08-16T19:33:40.813Z,80.70
2017-08-16T19:36:08.401Z,81.10
2017-08-16T19:38:36.050Z,81.30
2017-08-16T19:41:03.677Z,81.60
2017-08-16T19:43:31.333Z,81.50
2017-08-16T19:45:58.949Z,82.10
2017-08-16T19:48:26.546Z,82.20
2017-08-16T19:50:54.177Z,82.00
2017-08-16T19:53:21.818Z,82.30
2017-08-16T19:55:49.456Z,81.80
2017-08-16T19:58:17.056Z,82.20
2017-08-16T20:00:44.730Z,82.20
2017-08-16T20:03:12.328Z,82.00
2017-08-16T20:05:39.933Z,82.20
2017-08-16T20:08:07.538Z,81.90
2017-08-16T20:10:36.975Z,82.40
2017-08-16T20:13:04.628Z,83.00
2017-08-16T20:15:32.192Z,83.00
2017-08-16T20:17:59.872Z,82.60
2017-08-16T20:20:27.463Z,82.20
2017-08-16T20:22:55.104Z,81.70
2017-08-16T20:25:22.692Z,81.20
2017-08-16T20:27:51.162Z,81.80
2017-08-16T20:30:18.778Z,81.60
2017-08-16T20:32:46.380Z,82.10
2017-08-16T20:35:14.018Z,82.20
2017-08-16T20:37:41.622Z,82.00
2017-08-16T20:40:09.273Z,81.60
2017-08-16T20:42:36.865Z,81.30
2017-08-16T20:45:04.395Z,82.50
2017-08-16T20:47:31.980Z,82.10
2017-08-16T20:49:59.563Z,82.40
2017-08-16T20:52:27.168Z,83.00
2017-08-16T20:54:55.267Z,83.20
2017-08-16T20:57:22.897Z,83.40
2017-08-16T20:59:50.433Z,83.80
2017-08-16T21:02:18.024Z,83.10
2017-08-16T21:04:45.575Z,82.60
2017-08-16T21:07:13.152Z,82.20
2017-08-16T21:09:40.774Z,81.90
2017-08-16T21:12:08.358Z,81.60
2017-08-16T21:14:35.998Z,82.30
2017-08-16T21:17:03.572Z,82.10
2017-08-16T21:19:31.196Z,82.20
2017-08-16T21:21:58.898Z,82.30
2017-08-16T21:24:26.611Z,82.00
2017-08-16T21:26:54.229Z,82.00
2017-08-16T21:29:21.890Z,81.90
2017-08-16T21:31:49.490Z,81.40
2017-08-16T21:34:17.137Z,81.90
2017-08-16T21:36:44.748Z,81.80
2017-08-16T21:39:12.426Z,81.60
2017-08-16T21:41:40.014Z,81.20
2017-08-16T21:44:07.629Z,80.70
2017-08-16T21:46:35.286Z,81.00
2017-08-16T21:49:02.882Z,80.90
2017-08-16T21:51:30.585Z,81.10
2017-08-16T21:53:58.228Z,81.20
2017-08-16T21:56:25.956Z,81.30
2017-08-16T21:58:53.550Z,80.90
2017-08-16T22:01:21.204Z,81.00
2017-08-16T22:03:48.806Z,80.80
2017-08-16T22:06:16.456Z,81.10
2017-08-16T22:08:44.071Z,81.00
2017-08-16T22:11:11.690Z,81.20
2017-08-16T22:13:39.333Z,81.00
2017-08-16T22:16:06.921Z,80.50
2017-08-16T22:18:34.511Z,79.90
2017-08-16T22:21:02.133Z,80.20
2017-08-16T22:23:29.866Z,80.90
2017-08-16T22:25:57.515Z,80.70
2017-08-16T22:28:25.183Z,80.80
2017-08-16T22:30:52.804Z,81.30
2017-08-16T22:33:20.384Z,81.40
2017-08-16T22:35:47.996Z,81.50
2017-08-16T22:38:15.589Z,82.20
2017-08-16T22:40:43.175Z,83.20
2017-08-16T22:43:10.798Z,84.40
2017-08-16T22:45:38.440Z,84.10
2017-08-16T22:48:06.004Z,84.60
2017-08-16T22:50:33.585Z,84.60
2017-08-16T22:53:01.255Z,84.90
2017-08-16T22:55:28.835Z,84.00
2017-08-16T22:57:56.506Z,83.90
2017-08-16T23:00:24.105Z,84.60
2017-08-16T23:02:51.765Z,84.80
2017-08-16T23:05:19.366Z,84.60
2017-08-16T23:07:46.945Z,83.90
2017-08-16T23:10:14.588Z,84.10
2017-08-16T23:12:42.173Z,83.90
2017-08-16T23:15:09.789Z,83.60
2017-08-16T23:17:37.369Z,83.60
2017-08-16T23:20:04.964Z,83.20
2017-08-16T23:22:32.577Z,82.90
2017-08-16T23:25:00.188Z,83.10
2017-08-16T23:27:27.851Z,83.10
2017-08-16T23:29:55.479Z,83.40
2017-08-16T23:32:23.109Z,84.00
2017-08-16T23:34:50.697Z,83.70
2017-08-16T23:37:18.305Z,83.60
2017-08-16T23:39:45.877Z,83.90
2017-08-16T23:42:13.470Z,84.10
2017-08-16T23:44:41.114Z,84.40
2017-08-16T23:47:08.729Z,84.00
2017-08-16T23:49:36.307Z,83.60
2017-08-16T23:52:03.865Z,83.30
2017-08-16T23:54:31.470Z,83.80
2017-08-16T23:56:59.051Z,84.00
2017-08-16T23:59:26.666Z,83.40
